PADU

Details ICAO PADU (DUT)
Name UNALASKA
Region USA (Alaska)
Timezone America/Adak (UTC-9.0)
Plans Departing 71
Arriving 79
Stats Elevation 22 ft / 7 m (AMSL)
Location 53.899070° -166.545064°
Runways 1
Magnetic Variation 9.050° E
Sunrise 2018-04-24 15:45:29 UTC / 2018-04-24 06:45:29 Local
Sunset 2018-04-25 06:25:18 UTC / 2018-04-24 21:25:18 Local
Advertisement - Login to hide

Runways

ID Width Length Bearing (true) Bearing (mag) Surface Threshold Offset Overrun Length
12 100 ft / 30 m 3,895 ft / 1,187 m 135.64° 126.59° Asphalt 100 ft / 30 m 0 ft / 0 m
30 100 ft / 30 m 3,895 ft / 1,187 m 315.65° 306.60° Asphalt 101 ft / 31 m 0 ft / 0 m

Map

Weather


0- 5 10 15 20 25 30 35+ Temperature / ° C

Clouds and Precipitation
Forecast for 2018-04-25 06:00 UTC. Updated an hour ago

Ground ~20,000 ft ~40,000 ft Winds

METAR

PADU 250356Z 20010G19KT 10SM -RA FEW018 BKN030 BKN039 04/01 A2931 RMK AO2 SLP929 KK P0001 T00440006

TAF

PADU 242333Z 2500/2524 21021G30KT P6SM -SHRA BKN025 FM251700 23015G25KT 6SM -SHRA BKN025

Frequencies

Recorded 125.80 MHz AWOS 3
Unicom 122.60 MHz CTAF
Warning: Do not use this data for real-world aviation or navigation. No guarantee of current accuracy is given.